Dunnville, Kentucky
Current Conditions -  °F | °C
As of 12:35 AM on Sunday 23 Nov 2014 (Local Time) from KSME Reporting Station
Overcast Overcast  
Wind Chill: 50°   Ceiling: 10000
Heat Index: 50°   Visibility: 10mi
Dew Point: 32°   Wind: 3mph
Humidity: 50%   Direction: 200°SSW
Pressure: 30.13"   Gusts: NA
Location:  37.2°N, 85.01°W
Report Text: KSME 230535Z AUTO 20003KT 10SM OVC100 10/00 A3013 RMK AO2
Loading
Personal Weather Stations






























Interactive Weather Map New forecast layout! Learn more

10-Day Weather Forecast

Advertisements
Track Severe Weather on mobile